シンガポール/チャンギ の空港の天気 - METARとTAF

シンガポール・チャンギ国際空港 ( WSSS / SIN ) - シンガポール Changi
飛行場実況気象(Metar)
観測時間12/14 14:30 SGT (12/14 06:30 UTC)
風向・風速北東 5m/s
視程10km以上
天気現象
全天の4割程度の雲 雲底高度 490m
全天の8割程度の雲 雲底高度 4570m
気温29℃
湿度74%
気圧1011hPa
METARWSSS 140630Z 04010KT 010V100 9999 SCT016 BKN150 29/24 Q1011 NOSIG
過去の天気等 Google飛行場航空写真 Wunderground天気予報

過去48時間のMETAR

飛行場予報(TAF)
発表時間: 12/14 13:00 SGT (12/14 05:00 UTC)
予報対象時間: 14日14時 SGT ~ 15日20時 SGT
風向・風速北北東 4m/s
視程10km以上
少しの積乱雲 雲底高度 460m
全天の4割程度の雲 雲底高度 610m
14日14時 SGT ~ 14日18時 SGT に一時的に
視程3000m
天気現象雷雨
少しの積乱雲 雲底高度 370m
全天の8割程度の雲 雲底高度 460m
TAF WSSS 140500Z 1406/1512 02008KT 9999 FEW015CB SCT020
TEMPO 1406/1410 3000 TSRA FEW012CB BKN015